Time;durP1;ratioP1;P1;durP2;ratioP2;P2;SDS_P1;SDS_P2;PMS_P1;PMS_P2;Temp;Humidity;BMP_temperature;BMP_pressure;BME280_temperature;BME280_humidity;BME280_pressure;Samples;Min_cycle;Max_cycle;Signal;HPM_P1;HPM_P2
2022/12/07 00:01:25;;;;;;;12.58;7.83;;;2.50;99.90;;;;;;1921017;74;21089;-85
2022/12/07 00:04:18;;;;;;;15.35;8.83;;;2.50;99.90;;;;;;1909806;74;21083;-84
2022/12/07 00:07:10;;;;;;;14.25;8.18;;;2.60;99.90;;;;;;1910646;74;21573;-85
2022/12/07 00:10:01;;;;;;;12.23;7.67;;;2.60;99.90;;;;;;1915564;74;21152;-84
2022/12/07 00:12:54;;;;;;;14.90;8.55;;;2.50;99.90;;;;;;1917472;74;21140;-84
2022/12/07 00:15:46;;;;;;;13.13;8.78;;;2.50;99.90;;;;;;1925888;74;21086;-85
2022/12/07 00:18:38;;;;;;;15.50;8.78;;;2.60;99.90;;;;;;1912551;74;21132;-84
2022/12/07 00:24:10;;;;;;;14.93;8.50;;;2.60;99.90;;;;;;1930371;72;22186;-85
2022/12/07 00:27:02;;;;;;;13.05;8.68;;;2.60;99.90;;;;;;1903816;75;21106;-85
2022/12/07 00:29:53;;;;;;;14.87;8.95;;;2.60;99.90;;;;;;1894854;75;21046;-84
2022/12/07 00:32:45;;;;;;;13.90;8.35;;;2.60;99.90;;;;;;1892644;75;21150;-84
2022/12/07 00:35:37;;;;;;;13.53;8.33;;;2.60;99.90;;;;;;1897452;75;21176;-84
2022/12/07 00:38:32;;;;;;;13.32;7.70;;;2.50;99.90;;;;;;1892100;75;21090;-85
2022/12/07 00:41:26;;;;;;;13.10;8.33;;;2.50;99.90;;;;;;1893132;75;21066;-85
2022/12/07 00:44:17;;;;;;;13.65;8.83;;;2.50;99.90;;;;;;1889760;75;21195;-85
2022/12/07 00:47:09;;;;;;;12.65;7.80;;;2.40;99.90;;;;;;1908952;75;21102;-85
2022/12/07 00:52:41;;;;;;;13.32;9.20;;;2.50;99.90;;;;;;1931910;72;22465;-85
2022/12/07 00:58:17;;;;;;;15.70;11.10;;;2.50;99.90;;;;;;1928011;72;27973;-85
2022/12/07 01:01:11;;;;;;;14.65;9.75;;;2.60;99.90;;;;;;1898039;75;21682;-86
2022/12/07 01:04:06;;;;;;;13.32;8.73;;;2.60;99.90;;;;;;1875807;75;21063;-86
2022/12/07 01:06:57;;;;;;;12.85;8.80;;;2.60;99.90;;;;;;1882189;75;21111;-85
2022/12/07 01:09:49;;;;;;;13.95;8.80;;;2.50;99.90;;;;;;1879139;75;21090;-85
2022/12/07 01:12:41;;;;;;;12.43;8.65;;;2.60;99.90;;;;;;1877179;75;21138;-85
2022/12/07 01:15:32;;;;;;;13.30;8.95;;;2.50;99.90;;;;;;1884817;75;21039;-85
2022/12/07 01:21:06;;;;;;;13.83;8.90;;;2.40;99.90;;;;;;1945058;72;22225;-86
2022/12/07 01:23:59;;;;;;;14.58;8.63;;;2.50;99.90;;;;;;1903780;75;21126;-85
2022/12/07 01:26:52;;;;;;;14.33;8.13;;;2.40;99.90;;;;;;1890836;75;21168;-85
2022/12/07 01:29:44;;;;;;;12.43;7.72;;;2.40;99.90;;;;;;1892834;75;21101;-85
2022/12/07 01:32:36;;;;;;;12.35;8.55;;;2.40;99.90;;;;;;1883228;75;21130;-86
2022/12/07 01:38:08;;;;;;;12.65;7.45;;;2.50;99.90;;;;;;1938580;72;22150;-85
2022/12/07 01:41:00;;;;;;;14.00;8.13;;;2.60;99.90;;;;;;1864163;76;21162;-85
2022/12/07 01:46:56;;;;;;;11.78;7.47;;;2.60;99.90;;;;;;1934735;72;22242;-85
2022/12/07 01:52:32;;;;;;;13.75;8.45;;;2.60;99.90;;;;;;1965839;72;22380;-85
2022/12/07 01:58:02;;;;;;;11.38;7.87;;;2.60;99.90;;;;;;1928434;72;22229;-85
2022/12/07 02:00:54;;;;;;;13.40;8.35;;;2.50;99.90;;;;;;1885943;75;21098;-85
2022/12/07 02:03:47;;;;;;;11.00;7.33;;;2.50;99.90;;;;;;1881621;75;21102;-84
2022/12/07 02:09:17;;;;;;;12.33;8.05;;;2.50;99.90;;;;;;1944808;72;22209;-86
2022/12/07 02:12:08;;;;;;;11.60;7.97;;;2.50;99.90;;;;;;1895774;75;21179;-85
2022/12/07 02:15:00;;;;;;;12.63;8.18;;;2.60;99.90;;;;;;1905691;75;21163;-85
2022/12/07 02:20:36;;;;;;;13.48;8.50;;;2.60;99.90;;;;;;1946662;72;22237;-86
2022/12/07 02:23:59;;;;;;;12.82;8.50;;;2.60;99.90;;;;;;1886830;75;21187;-85
2022/12/07 02:27:17;;;;;;;12.47;8.43;;;2.60;99.90;;;;;;1900991;75;21103;-85
2022/12/07 02:35:34;;;;;;;15.65;8.55;;;2.70;99.90;;;;;;1951415;72;22220;-85
2022/12/07 02:38:29;;;;;;;13.13;7.75;;;2.60;99.90;;;;;;1926587;73;21093;-85
2022/12/07 02:41:24;;;;;;;14.03;8.50;;;2.60;99.90;;;;;;1924988;73;21160;-85
2022/12/07 02:44:19;;;;;;;11.08;7.55;;;2.60;99.90;;;;;;1924696;73;21150;-85
2022/12/07 02:47:14;;;;;;;12.82;8.68;;;2.60;99.90;;;;;;1913481;73;21098;-85
2022/12/07 02:52:45;;;;;;;14.98;9.00;;;2.70;99.90;;;;;;1932134;72;22201;-86
2022/12/07 02:58:28;;;;;;;12.30;8.18;;;2.90;99.90;;;;;;1941033;72;22189;-86
2022/12/07 03:04:08;;;;;;;11.25;7.55;;;2.90;99.90;;;;;;1956277;72;22683;-85
2022/12/07 03:09:45;;;;;;;11.35;8.78;;;2.90;99.90;;;;;;1937117;72;22310;-85
2022/12/07 03:12:40;;;;;;;12.37;8.35;;;3.00;99.90;;;;;;1886781;75;21110;-86
2022/12/07 03:15:36;;;;;;;14.38;8.55;;;3.00;99.90;;;;;;1901007;75;21526;-86
2022/12/07 03:18:30;;;;;;;14.30;9.05;;;3.00;99.90;;;;;;1898351;75;21090;-86
2022/12/07 03:24:06;;;;;;;13.53;7.58;;;2.90;99.90;;;;;;1957207;72;22112;-86
2022/12/07 03:29:44;;;;;;;11.97;8.58;;;3.00;99.90;;;;;;1927705;72;22209;-85
2022/12/07 03:32:38;;;;;;;14.60;9.00;;;3.00;99.90;;;;;;1905764;73;21217;-85
2022/12/07 03:38:28;;;;;;;16.45;11.95;;;3.00;99.90;;;;;;1949045;72;27976;-85
2022/12/07 03:43:59;;;;;;;14.25;8.83;;;3.10;99.90;;;;;;1940281;72;22158;-86
2022/12/07 03:46:55;;;;;;;14.00;8.55;;;3.10;99.90;;;;;;1905676;75;21218;-85
2022/12/07 03:49:50;;;;;;;12.03;8.15;;;3.10;99.90;;;;;;1877259;75;21106;-85
2022/12/07 03:52:44;;;;;;;11.65;8.55;;;3.10;99.90;;;;;;1895217;75;21188;-85
2022/12/07 03:58:18;;;;;;;11.78;8.30;;;3.20;99.90;;;;;;1944913;72;22276;-86
2022/12/07 04:03:49;;;;;;;13.35;8.90;;;3.30;99.90;;;;;;1926647;72;22276;-86
2022/12/07 04:06:41;;;;;;;13.22;8.40;;;3.30;99.90;;;;;;1910382;75;21102;-86
2022/12/07 04:09:33;;;;;;;12.23;7.90;;;3.30;99.90;;;;;;1884116;75;21092;-86
2022/12/07 04:17:45;;;;;;;13.03;8.60;;;3.20;99.90;;;;;;1942055;72;22255;-85
2022/12/07 04:20:36;;;;;;;12.05;7.62;;;3.20;99.90;;;;;;1886136;75;21102;-86
2022/12/07 04:23:28;;;;;;;11.93;8.43;;;3.20;99.90;;;;;;1898138;75;21094;-85
2022/12/07 04:26:20;;;;;;;13.65;8.63;;;3.20;99.90;;;;;;1891576;75;21059;-85
2022/12/07 04:29:12;;;;;;;12.28;8.15;;;3.20;99.90;;;;;;1884220;75;21109;-85
2022/12/07 04:32:04;;;;;;;14.65;8.75;;;3.20;99.90;;;;;;1896416;75;21204;-85
2022/12/07 04:34:56;;;;;;;12.93;8.53;;;3.30;99.90;;;;;;1891318;75;21142;-85
2022/12/07 04:37:50;;;;;;;13.58;9.33;;;3.40;99.90;;;;;;1893638;75;21144;-85
2022/12/07 04:43:25;;;;;;;12.98;9.00;;;3.40;99.90;;;;;;1936942;72;22122;-86
2022/12/07 04:46:17;;;;;;;12.65;8.40;;;3.50;99.90;;;;;;1886528;75;21074;-86
2022/12/07 04:49:09;;;;;;;13.35;8.90;;;3.40;99.90;;;;;;1877919;75;21176;-85
2022/12/07 04:52:02;;;;;;;12.55;8.68;;;3.30;99.90;;;;;;1895694;75;21098;-85
2022/12/07 04:54:54;;;;;;;12.35;8.73;;;3.30;99.90;;;;;;1880842;75;21128;-85
2022/12/07 04:57:46;;;;;;;13.80;8.70;;;3.30;99.90;;;;;;1882091;75;21091;-85
2022/12/07 05:00:38;;;;;;;13.53;8.90;;;3.30;99.90;;;;;;1886011;75;21107;-85
2022/12/07 05:03:29;;;;;;;13.95;9.15;;;3.30;99.90;;;;;;1883284;75;21152;-85
2022/12/07 05:06:21;;;;;;;14.40;9.55;;;3.30;99.90;;;;;;1888373;75;21131;-86
2022/12/07 05:09:13;;;;;;;13.85;8.75;;;3.30;99.90;;;;;;1872452;75;21216;-85
2022/12/07 05:12:05;;;;;;;13.38;9.20;;;3.30;99.90;;;;;;1895210;75;21071;-85
2022/12/07 05:14:56;;;;;;;13.45;8.05;;;3.40;99.90;;;;;;1881853;75;21126;-87
2022/12/07 05:20:32;;;;;;;13.68;10.58;;;3.40;99.90;;;;;;1925350;72;28003;-85
2022/12/07 05:23:25;;;;;;;12.37;9.00;;;3.60;99.90;;;;;;1905704;74;21155;-85
2022/12/07 05:26:17;;;;;;;13.28;8.65;;;3.60;99.90;;;;;;1904530;75;21183;-85
2022/12/07 05:29:10;;;;;;;12.70;8.40;;;3.50;99.90;;;;;;1904564;75;21178;-85
2022/12/07 05:32:02;;;;;;;11.75;8.10;;;3.50;99.90;;;;;;1933099;73;21131;-85
2022/12/07 05:34:54;;;;;;;12.65;7.92;;;3.50;99.90;;;;;;1930274;73;21155;-87
2022/12/07 05:37:46;;;;;;;13.05;8.18;;;3.50;99.90;;;;;;1934518;73;21144;-86
2022/12/07 05:43:30;;;;;;;13.03;7.83;;;3.60;99.90;;;;;;1945933;72;22252;-85
2022/12/07 05:49:06;;;;;;;13.22;10.35;;;3.50;99.90;;;;;;1934472;72;28443;-86
2022/12/07 05:51:58;;;;;;;12.63;9.00;;;3.70;99.90;;;;;;1922654;73;21175;-85
2022/12/07 05:54:49;;;;;;;12.88;8.83;;;3.70;99.90;;;;;;1914400;73;21134;-85
2022/12/07 05:59:22;;;;;;;12.93;9.23;;;3.60;99.90;;;;;;1920605;73;21099;-85
2022/12/07 06:00:35;;;;;;;14.15;9.43;;;3.50;99.90;;;;;;1915360;74;21106;-85
2022/12/07 06:03:27;;;;;;;16.73;9.60;;;3.40;99.90;;;;;;1914378;75;21118;-84
2022/12/07 06:06:19;;;;;;;14.58;9.23;;;3.40;99.90;;;;;;1914871;73;21091;-85
2022/12/07 06:09:12;;;;;;;14.23;9.60;;;3.50;99.90;;;;;;1920102;73;21171;-85
2022/12/07 06:17:52;;;;;;;13.53;9.43;;;3.40;99.90;;;;;;1939062;72;22263;-86
2022/12/07 06:23:24;;;;;;;12.70;8.83;;;3.50;99.90;;;;;;1938015;72;22166;-85
2022/12/07 06:26:16;;;;;;;14.28;8.33;;;3.60;99.90;;;;;;1878927;75;21170;-85
2022/12/07 06:29:09;;;;;;;11.83;7.80;;;3.60;99.90;;;;;;1882311;75;21106;-85
2022/12/07 06:32:01;;;;;;;11.83;7.67;;;3.50;99.90;;;;;;1887708;75;21132;-85
2022/12/07 06:34:53;;;;;;;11.55;7.58;;;3.50;99.90;;;;;;1872456;75;21180;-84
2022/12/07 06:37:44;;;;;;;13.85;9.03;;;3.40;99.90;;;;;;1888330;75;21114;-85
2022/12/07 06:43:17;;;;;;;11.28;7.95;;;3.30;99.90;;;;;;1949274;72;22164;-85
2022/12/07 06:46:09;;;;;;;13.53;8.50;;;3.30;99.90;;;;;;1904098;75;21051;-85
2022/12/07 06:51:47;;;;;;;14.73;9.43;;;3.20;99.90;;;;;;1951173;72;22212;-86
2022/12/07 06:57:36;;;;;;;17.82;12.35;;;3.30;99.90;;;;;;1915390;72;28120;-86
2022/12/07 07:03:09;;;;;;;14.00;8.95;;;3.30;99.90;;;;;;1929023;72;22146;-86
2022/12/07 07:06:01;;;;;;;14.70;9.53;;;3.10;99.90;;;;;;1900009;75;21098;-85
2022/12/07 07:08:53;;;;;;;12.60;8.90;;;3.10;99.90;;;;;;1895942;75;21158;-86
2022/12/07 07:11:45;;;;;;;15.13;9.85;;;3.10;99.90;;;;;;1905513;75;21115;-86
2022/12/07 07:14:37;;;;;;;14.03;9.28;;;3.10;99.90;;;;;;1894837;75;21146;-86
2022/12/07 07:17:29;;;;;;;13.10;9.13;;;3.30;99.90;;;;;;1901956;75;21066;-85
2022/12/07 07:23:06;;;;;;;17.10;12.45;;;3.20;99.90;;;;;;1919032;72;28322;-85
2022/12/07 07:28:40;;;;;;;15.98;10.10;;;3.30;99.90;;;;;;1956056;72;22235;-86
2022/12/07 07:31:35;;;;;;;12.73;8.38;;;3.50;99.90;;;;;;1910441;74;21102;-86
2022/12/07 07:34:26;;;;;;;11.40;7.75;;;3.60;99.90;;;;;;1904639;75;21124;-86
2022/12/07 07:39:56;;;;;;;13.90;8.45;;;3.30;99.90;;;;;;1938625;72;22695;-86
2022/12/07 07:42:50;;;;;;;14.07;8.60;;;3.20;99.90;;;;;;1889478;75;21103;-85
2022/12/07 07:48:22;;;;;;;12.28;8.15;;;3.20;99.90;;;;;;1951804;72;22159;-85
2022/12/07 07:51:17;;;;;;;12.03;8.13;;;3.20;99.90;;;;;;1898123;75;21107;-85
2022/12/07 07:54:09;;;;;;;13.40;7.87;;;3.30;99.90;;;;;;1872361;75;21091;-87
2022/12/07 07:57:01;;;;;;;11.97;8.20;;;3.20;99.90;;;;;;1878720;75;21091;-86
2022/12/07 07:59:54;;;;;;;11.25;8.00;;;3.20;99.90;;;;;;1880198;75;21165;-86
2022/12/07 08:02:46;;;;;;;14.23;9.33;;;3.20;99.90;;;;;;1893112;75;21169;-86
2022/12/07 08:08:18;;;;;;;10.85;8.50;;;3.20;99.90;;;;;;1940531;72;22161;-85
2022/12/07 08:13:48;;;;;;;13.95;8.83;;;3.20;99.90;;;;;;1937327;72;22360;-85
2022/12/07 08:16:40;;;;;;;13.45;9.25;;;3.30;99.90;;;;;;1895829;74;21112;-85
2022/12/07 08:19:32;;;;;;;13.45;8.73;;;3.30;99.90;;;;;;1890349;75;21106;-85
2022/12/07 08:22:24;;;;;;;13.60;8.90;;;3.70;99.90;;;;;;1889592;75;21233;-85
2022/12/07 08:27:58;;;;;;;13.53;8.90;;;3.50;99.90;;;;;;1941415;72;22261;-85
2022/12/07 08:30:50;;;;;;;13.13;8.68;;;3.50;99.90;;;;;;1881357;75;21094;-85
2022/12/07 08:33:42;;;;;;;13.08;9.33;;;3.40;99.90;;;;;;1873409;75;21159;-85
2022/12/07 08:36:34;;;;;;;14.38;9.03;;;3.30;99.90;;;;;;1880531;75;21164;-85
2022/12/07 08:39:25;;;;;;;15.15;9.05;;;3.30;99.90;;;;;;1876951;75;21227;-85
2022/12/07 08:44:58;;;;;;;13.30;8.48;;;3.30;99.90;;;;;;1947032;72;22321;-85
2022/12/07 08:47:59;;;;;;;12.63;8.60;;;3.20;99.90;;;;;;1896782;75;21157;-86
2022/12/07 08:50:55;;;;;;;14.90;9.33;;;3.30;99.90;;;;;;1882414;75;21106;-86
2022/12/07 08:56:28;;;;;;;11.48;8.38;;;3.50;99.90;;;;;;1945402;72;22212;-85
2022/12/07 08:59:21;;;;;;;13.35;8.58;;;3.40;99.90;;;;;;1932209;73;21183;-85
2022/12/07 09:02:13;;;;;;;11.48;8.03;;;3.40;99.90;;;;;;1921931;73;21145;-85
2022/12/07 09:05:04;;;;;;;12.68;7.95;;;3.40;99.90;;;;;;1916766;75;21062;-86
2022/12/07 09:08:02;;;;;;;15.55;8.85;;;3.30;99.90;;;;;;1917617;73;21078;-85
2022/12/07 09:10:53;;;;;;;15.00;9.58;;;3.30;99.90;;;;;;1931504;73;21094;-85
2022/12/07 09:13:45;;;;;;;15.30;9.15;;;3.30;99.90;;;;;;1943003;73;21106;-85
2022/12/07 09:16:36;;;;;;;14.30;9.75;;;3.30;99.90;;;;;;1944073;73;21159;-85
2022/12/07 09:19:28;;;;;;;16.30;9.48;;;3.40;99.90;;;;;;1916687;75;21654;-85
2022/12/07 09:22:24;;;;;;;13.00;8.95;;;3.50;99.90;;;;;;1932887;73;21107;-85
2022/12/07 09:27:59;;;;;;;15.53;9.65;;;3.60;99.90;;;;;;1975305;72;22243;-85
2022/12/07 09:30:51;;;;;;;13.45;9.03;;;3.70;99.90;;;;;;1858887;76;21169;-85
2022/12/07 09:33:44;;;;;;;13.62;8.63;;;3.80;99.90;;;;;;1925981;73;21063;-85
2022/12/07 09:36:37;;;;;;;11.12;8.05;;;3.90;99.90;;;;;;1931160;73;21179;-85
2022/12/07 09:39:29;;;;;;;12.85;8.70;;;3.90;99.90;;;;;;1916836;73;21090;-85
2022/12/07 09:42:31;;;;;;;13.22;8.73;;;3.90;99.90;;;;;;1937531;73;21046;-85
2022/12/07 09:45:26;;;;;;;13.00;8.53;;;4.00;99.90;;;;;;1916615;73;21105;-87
2022/12/07 09:48:21;;;;;;;11.15;8.23;;;3.90;99.90;;;;;;1917012;73;21094;-85
2022/12/07 09:53:58;;;;;;;11.08;8.08;;;3.90;99.90;;;;;;1939687;72;22221;-86
2022/12/07 09:56:49;;;;;;;12.88;8.85;;;3.90;99.90;;;;;;1896323;75;21059;-86
2022/12/07 09:59:41;;;;;;;12.53;8.38;;;3.90;99.90;;;;;;1900210;75;21201;-85
2022/12/07 10:07:54;;;;;;;13.40;9.43;;;4.00;99.90;;;;;;1929272;72;23406;-86
2022/12/07 10:13:36;;;;;;;14.47;9.68;;;4.10;99.90;;;;;;1943283;72;22287;-85
2022/12/07 10:16:35;;;;;;;15.70;10.82;;;4.10;99.90;;;;;;1928727;73;21155;-85
2022/12/07 10:19:29;;;;;;;15.13;10.53;;;4.10;99.90;;;;;;1932262;73;21145;-85
2022/12/07 10:22:21;;;;;;;18.15;11.05;;;4.20;99.90;;;;;;1922878;73;21070;-85
2022/12/07 10:28:13;;;;;;;17.80;11.95;;;4.20;99.90;;;;;;1938841;72;22601;-85
2022/12/07 10:31:10;;;;;;;17.77;10.85;;;4.20;99.90;;;;;;1883934;75;21188;-85
2022/12/07 10:34:03;;;;;;;18.17;10.90;;;4.10;99.90;;;;;;1884118;75;21105;-85
2022/12/07 10:36:57;;;;;;;16.37;11.40;;;4.20;99.90;;;;;;1911764;75;21117;-85
2022/12/07 10:39:52;;;;;;;16.23;10.58;;;4.20;99.90;;;;;;1888577;75;21546;-85
2022/12/07 10:48:30;;;;;;;15.85;12.68;;;4.40;99.90;;;;;;1914221;72;28471;-85
2022/12/07 10:51:27;;;;;;;14.33;10.38;;;4.60;99.90;;;;;;1905837;75;21136;-84
2022/12/07 10:54:22;;;;;;;16.67;9.33;;;4.60;99.90;;;;;;1914169;75;21090;-85
2022/12/07 11:00:26;;;;;;;16.67;10.98;;;4.60;99.90;;;;;;1929048;72;22284;-85
2022/12/07 11:06:33;;;;;;;16.55;10.43;;;4.50;99.90;;;;;;2023253;69;22197;-85
2022/12/07 11:09:47;;;;;;;19.80;10.00;;;4.40;99.90;;;;;;1988224;71;21496;-86
2022/12/07 11:12:58;;;;;;;14.38;9.98;;;4.40;99.90;;;;;;1983635;71;21062;-86
2022/12/07 11:18:35;;;;;;;16.97;11.83;;;4.50;99.90;;;;;;1938104;72;22281;-85
2022/12/07 11:21:30;;;;;;;13.40;10.10;;;4.60;99.90;;;;;;1915600;75;21156;-85
2022/12/07 11:24:26;;;;;;;15.25;10.60;;;4.60;99.90;;;;;;1883884;75;21126;-84
2022/12/07 11:27:23;;;;;;;14.80;10.00;;;4.70;99.90;;;;;;1898346;75;21059;-85
2022/12/07 11:33:11;;;;;;;14.28;10.15;;;4.70;99.90;;;;;;1935667;72;22342;-85
2022/12/07 11:36:10;;;;;;;14.68;10.10;;;4.70;99.90;;;;;;1877811;75;21407;-85
2022/12/07 11:39:05;;;;;;;12.23;9.23;;;4.80;99.90;;;;;;1872257;75;21147;-85
2022/12/07 11:42:03;;;;;;;13.13;10.18;;;4.80;99.90;;;;;;1880429;75;21095;-84
2022/12/07 11:44:58;;;;;;;12.53;9.05;;;4.90;99.90;;;;;;1873927;75;21125;-85
2022/12/07 11:47:52;;;;;;;15.32;9.35;;;4.90;99.90;;;;;;1875420;75;21181;-85
2022/12/07 11:53:24;;;;;;;14.68;10.40;;;5.00;99.90;;;;;;1941673;72;22251;-85
2022/12/07 11:56:18;;;;;;;17.05;10.93;;;5.00;99.90;;;;;;1911289;75;21110;-86
2022/12/07 11:59:14;;;;;;;15.75;10.75;;;5.00;99.90;;;;;;1911885;74;21135;-86
2022/12/07 12:02:11;;;;;;;17.05;10.68;;;5.00;99.90;;;;;;1892364;75;21188;-85
2022/12/07 12:05:06;;;;;;;16.97;10.10;;;5.00;99.90;;;;;;1889243;74;21169;-84
2022/12/07 12:08:02;;;;;;;15.63;10.18;;;5.00;99.90;;;;;;1907727;74;21544;-85
2022/12/07 12:11:04;;;;;;;14.80;10.00;;;5.10;99.90;;;;;;1895718;75;21070;-85
2022/12/07 12:22:59;;;;;;;11.45;8.90;;;5.00;99.90;;;;;;1968353;72;22141;-85
2022/12/07 12:25:55;;;;;;;12.33;9.20;;;5.00;99.90;;;;;;1923615;73;21184;-84
2022/12/07 12:28:54;;;;;;;13.68;10.28;;;5.10;99.90;;;;;;1925745;73;21140;-84
2022/12/07 12:31:47;;;;;;;12.60;9.40;;;5.10;99.90;;;;;;1922885;73;21141;-85
2022/12/07 12:34:46;;;;;;;16.50;9.80;;;5.10;99.90;;;;;;1917165;73;21611;-85
2022/12/07 12:37:45;;;;;;;13.60;9.83;;;5.00;99.90;;;;;;1916763;75;21133;-85
2022/12/07 12:40:53;;;;;;;13.62;9.63;;;5.00;99.90;;;;;;1916632;73;21135;-85
2022/12/07 12:43:52;;;;;;;15.53;9.60;;;5.00;99.90;;;;;;1916832;75;21121;-86
2022/12/07 12:49:44;;;;;;;17.92;11.33;;;5.00;99.90;;;;;;1946891;72;22145;-86
2022/12/07 12:52:59;;;;;;;14.45;10.13;;;5.00;99.90;;;;;;1943937;73;21055;-84
2022/12/07 12:56:27;;;;;;;16.20;10.68;;;5.10;99.90;;;;;;1917979;73;21092;-84
2022/12/07 12:59:24;;;;;;;;;;;5.10;99.90;;;;;;1936254;73;21151;-85
2022/12/07 13:02:23;;;;;;;15.88;10.85;;;5.10;99.90;;;;;;1926806;73;20202;-84
2022/12/07 13:08:02;;;;;;;14.43;9.28;;;5.00;99.90;;;;;;1933141;72;22247;-85
2022/12/07 13:13:43;;;;;;;13.30;10.25;;;5.00;99.90;;;;;;1942388;72;22259;-85
2022/12/07 13:16:51;;;;;;;14.35;9.70;;;5.00;99.90;;;;;;1916958;75;21545;-85
2022/12/07 13:20:01;;;;;;;14.10;9.60;;;5.00;99.90;;;;;;1920975;73;21369;-86
2022/12/07 13:22:59;;;;;;;12.05;9.05;;;5.00;99.90;;;;;;1917026;75;21088;-84
2022/12/07 13:29:12;;;;;;;14.50;10.20;;;4.90;99.90;;;;;;1942092;72;22155;-85
2022/12/07 13:32:03;;;;;;;15.65;10.88;;;4.80;99.90;;;;;;1888843;75;21163;-84
2022/12/07 13:34:56;;;;;;;14.03;9.85;;;4.80;99.90;;;;;;1893936;75;21107;-86
2022/12/07 13:37:47;;;;;;;14.47;9.88;;;4.90;99.90;;;;;;1887035;75;21224;-85
2022/12/07 13:43:20;;;;;;;14.78;9.88;;;4.80;99.90;;;;;;1939970;72;22645;-84
2022/12/07 13:46:16;;;;;;;14.00;9.90;;;4.80;99.90;;;;;;1878271;75;21110;-84
2022/12/07 13:49:22;;;;;;;14.80;10.18;;;4.90;99.90;;;;;;1872182;75;21193;-85
2022/12/07 13:55:00;;;;;;;14.85;9.40;;;4.90;99.90;;;;;;1925581;72;22326;-85
2022/12/07 13:57:55;;;;;;;13.93;9.80;;;5.00;99.90;;;;;;1893870;75;21168;-85
2022/12/07 14:00:47;;;;;;;14.43;10.53;;;5.00;99.90;;;;;;1874865;75;21103;-85
2022/12/07 14:03:39;;;;;;;13.88;10.13;;;4.90;99.90;;;;;;1885700;75;21609;-86
2022/12/07 14:06:30;;;;;;;18.20;10.70;;;4.90;99.90;;;;;;1872029;76;21606;-85
2022/12/07 14:09:25;;;;;;;15.68;10.15;;;4.90;99.90;;;;;;1881848;75;21099;-86
2022/12/07 14:12:17;;;;;;;15.45;10.38;;;4.80;99.90;;;;;;1882482;75;21107;-85
2022/12/07 14:15:21;;;;;;;14.00;10.45;;;4.90;99.90;;;;;;1881851;75;21201;-85
2022/12/07 14:18:30;;;;;;;14.63;10.53;;;4.90;99.90;;;;;;1870264;75;21331;-85
2022/12/07 14:21:23;;;;;;;14.73;10.68;;;4.90;99.90;;;;;;1890376;75;21113;-84
2022/12/07 14:24:21;;;;;;;16.32;9.73;;;4.90;99.90;;;;;;1885994;75;21126;-84
2022/12/07 14:27:21;;;;;;;13.38;9.75;;;4.90;99.90;;;;;;1882513;75;21161;-87
2022/12/07 14:30:18;;;;;;;13.18;9.45;;;4.80;99.90;;;;;;1897847;75;21158;-86
2022/12/07 14:33:11;;;;;;;13.80;9.30;;;4.90;99.90;;;;;;1893563;75;21179;-84
2022/12/07 14:36:02;;;;;;;15.10;9.58;;;4.90;99.90;;;;;;1891660;75;21148;-84
2022/12/07 14:38:55;;;;;;;13.68;9.33;;;4.80;99.90;;;;;;1885868;75;21091;-85
2022/12/07 14:41:53;;;;;;;12.45;9.00;;;4.80;99.90;;;;;;1882802;75;21112;-84
2022/12/07 14:44:45;;;;;;;13.50;9.05;;;4.90;99.90;;;;;;1882817;75;21099;-87
2022/12/07 14:47:37;;;;;;;14.73;9.45;;;4.80;99.90;;;;;;1882788;75;21240;-85
2022/12/07 14:50:30;;;;;;;14.80;9.88;;;4.80;99.90;;;;;;1886771;75;21229;-85
2022/12/07 14:56:05;;;;;;;13.50;9.53;;;4.90;99.90;;;;;;1947594;72;22228;-85
2022/12/07 14:58:57;;;;;;;13.08;9.00;;;4.90;99.90;;;;;;1907038;75;21048;-85
2022/12/07 15:01:49;;;;;;;13.20;9.33;;;4.80;99.90;;;;;;1899142;75;21195;-85
2022/12/07 15:04:41;;;;;;;12.23;8.93;;;4.80;99.90;;;;;;1897361;75;21087;-85
2022/12/07 15:07:32;;;;;;;18.17;13.30;;;4.90;99.90;;;;;;1888025;75;21109;-84
2022/12/07 15:10:29;;;;;;;17.92;10.30;;;4.90;99.90;;;;;;1884309;76;21192;-85
2022/12/07 15:16:29;;;;;;;13.62;9.98;;;4.90;99.90;;;;;;1901862;75;21134;-86
2022/12/07 15:19:25;;;;;;;13.50;9.83;;;4.90;99.90;;;;;;1884212;76;21121;-84
2022/12/07 15:22:24;;;;;;;14.13;9.25;;;4.90;99.90;;;;;;1906046;75;21066;-86
2022/12/07 15:25:16;;;;;;;13.65;9.98;;;4.90;99.90;;;;;;1906148;75;21114;-85
2022/12/07 15:28:09;;;;;;;12.28;8.85;;;4.90;99.90;;;;;;1905595;75;21103;-86
2022/12/07 15:31:02;;;;;;;12.75;8.60;;;4.80;99.90;;;;;;1901517;75;21652;-85
2022/12/07 15:33:55;;;;;;;15.72;9.83;;;4.80;99.90;;;;;;1896653;75;21224;-85
2022/12/07 15:36:48;;;;;;;16.62;10.72;;;4.80;99.90;;;;;;1894680;75;21136;-85
2022/12/07 15:39:39;;;;;;;16.10;10.10;;;4.80;99.90;;;;;;1892518;75;21208;-85
2022/12/07 15:42:31;;;;;;;17.37;10.85;;;4.70;99.90;;;;;;1903571;75;21043;-85
2022/12/07 15:45:23;;;;;;;12.88;9.45;;;4.80;99.90;;;;;;1898408;75;21203;-84
2022/12/07 15:51:05;;;;;;;13.13;9.65;;;4.90;99.90;;;;;;1942657;72;22288;-85
2022/12/07 15:53:58;;;;;;;14.18;9.95;;;4.80;99.90;;;;;;1873067;76;21075;-85
2022/12/07 15:56:50;;;;;;;14.28;9.85;;;4.90;99.90;;;;;;1887656;75;21123;-85
2022/12/07 15:59:42;;;;;;;14.58;9.95;;;4.80;99.90;;;;;;1894588;75;21060;-86
2022/12/07 16:02:34;;;;;;;14.75;9.93;;;4.80;99.90;;;;;;1893812;75;21205;-83
2022/12/07 16:05:27;;;;;;;15.00;9.93;;;4.80;99.90;;;;;;1872516;75;21063;-85
2022/12/07 16:08:18;;;;;;;14.20;9.43;;;4.90;99.90;;;;;;1904478;75;21111;-85
2022/12/07 16:11:10;;;;;;;13.35;8.80;;;4.90;99.90;;;;;;1892626;75;21130;-85
2022/12/07 16:14:02;;;;;;;13.65;9.13;;;4.90;99.90;;;;;;1871885;75;22137;-85
2022/12/07 16:16:54;;;;;;;13.43;9.10;;;4.90;99.90;;;;;;1895777;75;21572;-85
2022/12/07 16:19:46;;;;;;;14.33;10.18;;;4.90;99.90;;;;;;1885669;75;21067;-85
2022/12/07 16:22:38;;;;;;;14.25;10.13;;;4.80;99.90;;;;;;1872245;75;21181;-85
2022/12/07 16:25:29;;;;;;;13.78;8.88;;;4.90;99.90;;;;;;1872493;75;21091;-85
2022/12/07 16:28:21;;;;;;;12.70;9.18;;;4.80;99.90;;;;;;1893924;75;21099;-86
2022/12/07 16:31:15;;;;;;;14.93;9.80;;;4.80;99.90;;;;;;1872377;76;21141;-85
2022/12/07 16:34:13;;;;;;;13.65;9.23;;;4.80;99.90;;;;;;1887428;75;21079;-85
2022/12/07 16:37:05;;;;;;;15.30;9.70;;;4.90;99.90;;;;;;1883186;75;21095;-86
2022/12/07 16:39:56;;;;;;;14.30;9.90;;;4.80;99.90;;;;;;1882731;75;21133;-87
2022/12/07 16:42:48;;;;;;;18.20;10.28;;;4.90;99.90;;;;;;1882223;75;21147;-87
2022/12/07 16:45:40;;;;;;;14.18;9.50;;;4.90;99.90;;;;;;1837546;78;21097;-87
2022/12/07 16:48:34;;;;;;;12.65;9.08;;;4.90;99.90;;;;;;1885125;75;21091;-86
2022/12/07 16:51:26;;;;;;;14.15;9.78;;;4.80;99.90;;;;;;1905338;75;21087;-85
2022/12/07 16:54:18;;;;;;;15.40;10.35;;;4.90;99.90;;;;;;1885023;74;21114;-85
2022/12/07 16:57:10;;;;;;;14.73;10.25;;;4.90;99.90;;;;;;1887252;75;21129;-85
2022/12/07 17:00:08;;;;;;;14.07;9.05;;;4.90;99.90;;;;;;1853248;77;21155;-85
2022/12/07 17:03:02;;;;;;;13.60;9.13;;;5.00;99.90;;;;;;1871911;75;21094;-87
2022/12/07 17:05:58;;;;;;;18.02;10.50;;;4.90;99.90;;;;;;1895732;75;21101;-85
2022/12/07 17:08:55;;;;;;;14.75;9.58;;;5.00;99.90;;;;;;1875493;75;21126;-85
2022/12/07 17:11:55;;;;;;;15.13;9.98;;;5.00;99.90;;;;;;1911166;75;21154;-87
2022/12/07 17:18:20;;;;;;;15.63;10.38;;;5.00;99.90;;;;;;1901100;75;21586;-86
2022/12/07 17:21:14;;;;;;;14.50;9.88;;;4.90;99.90;;;;;;1879984;75;21193;-86
2022/12/07 17:24:10;;;;;;;16.35;10.15;;;4.90;99.90;;;;;;1893212;75;21075;-85
2022/12/07 17:27:01;;;;;;;13.62;9.08;;;4.90;99.90;;;;;;1860243;77;21117;-85
2022/12/07 17:29:54;;;;;;;14.33;10.72;;;4.90;99.90;;;;;;1896164;75;21111;-85
2022/12/07 17:32:45;;;;;;;12.93;9.08;;;4.90;99.90;;;;;;1874664;76;21153;-86
2022/12/07 17:35:37;;;;;;;15.65;9.85;;;4.90;99.90;;;;;;1871959;75;21059;-87
2022/12/07 17:38:32;;;;;;;14.87;10.15;;;4.90;99.90;;;;;;1871678;75;21114;-85
2022/12/07 17:44:37;;;;;;;16.17;11.12;;;5.00;99.90;;;;;;1882403;75;21114;-85
2022/12/07 17:47:35;;;;;;;15.45;10.35;;;5.00;99.90;;;;;;1904208;75;21157;-86
2022/12/07 17:53:10;;;;;;;16.77;11.40;;;5.00;99.90;;;;;;1965883;72;22726;-85
2022/12/07 17:56:05;;;;;;;16.50;11.12;;;5.00;99.90;;;;;;1917331;73;21207;-86
2022/12/07 17:58:59;;;;;;;14.75;9.93;;;5.00;99.90;;;;;;1918222;73;21199;-86
2022/12/07 18:01:51;;;;;;;15.25;10.30;;;5.00;99.90;;;;;;1935304;73;21115;-85
2022/12/07 18:04:43;;;;;;;15.23;10.38;;;4.90;99.90;;;;;;1923396;73;21139;-85
2022/12/07 18:10:22;;;;;;;22.58;12.73;;;4.90;99.90;;;;;;1951667;72;22154;-85
2022/12/07 18:16:26;;;;;;;16.30;10.60;;;5.00;99.90;;;;;;1928708;73;21146;-85
2022/12/07 18:19:21;;;;;;;13.20;9.85;;;5.00;99.90;;;;;;1916879;75;21167;-86
2022/12/07 18:22:13;;;;;;;13.90;9.93;;;5.00;99.90;;;;;;1904352;75;21095;-85
2022/12/07 18:25:05;;;;;;;17.45;10.58;;;5.00;99.90;;;;;;1906282;74;21110;-85
2022/12/07 18:27:57;;;;;;;14.30;10.58;;;5.00;99.90;;;;;;1931177;73;21152;-86
2022/12/07 18:30:50;;;;;;;14.45;10.18;;;5.00;99.90;;;;;;1917201;73;21164;-86